sensor_id;sensor_type;location;lat;lon;timestamp;P1;durP1;ratioP1;P2;durP2;ratioP2
40489;SDS011;26196;52.302;10.572;2022-08-03T00:02:47;1.27;;;1.13;;
40489;SDS011;26196;52.302;10.572;2022-08-03T00:06:48;3.60;;;1.58;;
40489;SDS011;26196;52.302;10.572;2022-08-03T00:10:48;3.05;;;1.77;;
40489;SDS011;26196;52.302;10.572;2022-08-03T00:14:49;2.70;;;1.67;;
40489;SDS011;26196;52.302;10.572;2022-08-03T00:18:49;2.30;;;1.45;;
40489;SDS011;26196;52.302;10.572;2022-08-03T00:22:49;3.75;;;1.50;;
40489;SDS011;26196;52.302;10.572;2022-08-03T00:26:50;2.40;;;1.38;;
40489;SDS011;26196;52.302;10.572;2022-08-03T00:30:51;2.15;;;1.77;;
40489;SDS011;26196;52.302;10.572;2022-08-03T00:34:51;3.55;;;1.48;;
40489;SDS011;26196;52.302;10.572;2022-08-03T00:38:51;1.80;;;1.63;;
40489;SDS011;26196;52.302;10.572;2022-08-03T00:42:55;4.25;;;1.80;;
40489;SDS011;26196;52.302;10.572;2022-08-03T00:46:58;3.92;;;1.50;;
40489;SDS011;26196;52.302;10.572;2022-08-03T00:50:58;2.78;;;1.58;;
40489;SDS011;26196;52.302;10.572;2022-08-03T00:54:59;3.33;;;1.50;;
40489;SDS011;26196;52.302;10.572;2022-08-03T00:59:00;2.38;;;1.30;;
40489;SDS011;26196;52.302;10.572;2022-08-03T01:03:02;1.83;;;1.40;;
40489;SDS011;26196;52.302;10.572;2022-08-03T01:07:08;2.08;;;1.60;;
40489;SDS011;26196;52.302;10.572;2022-08-03T01:11:16;2.50;;;1.25;;
40489;SDS011;26196;52.302;10.572;2022-08-03T01:15:30;2.13;;;1.30;;
40489;SDS011;26196;52.302;10.572;2022-08-03T01:19:44;1.80;;;1.55;;
40489;SDS011;26196;52.302;10.572;2022-08-03T01:32:10;2.67;;;1.70;;
40489;SDS011;26196;52.302;10.572;2022-08-03T01:36:13;2.00;;;1.38;;
40489;SDS011;26196;52.302;10.572;2022-08-03T01:40:18;1.83;;;1.40;;
40489;SDS011;26196;52.302;10.572;2022-08-03T01:44:21;3.03;;;1.40;;
40489;SDS011;26196;52.302;10.572;2022-08-03T01:48:23;1.58;;;1.30;;
40489;SDS011;26196;52.302;10.572;2022-08-03T01:52:25;1.75;;;1.50;;
40489;SDS011;26196;52.302;10.572;2022-08-03T01:56:26;2.92;;;1.23;;
40489;SDS011;26196;52.302;10.572;2022-08-03T02:00:29;1.65;;;1.52;;
40489;SDS011;26196;52.302;10.572;2022-08-03T02:04:31;3.65;;;1.55;;
40489;SDS011;26196;52.302;10.572;2022-08-03T02:08:34;1.73;;;1.63;;
40489;SDS011;26196;52.302;10.572;2022-08-03T02:12:36;1.77;;;1.30;;
40489;SDS011;26196;52.302;10.572;2022-08-03T02:16:38;2.35;;;1.35;;
40489;SDS011;26196;52.302;10.572;2022-08-03T02:20:40;5.10;;;1.75;;
40489;SDS011;26196;52.302;10.572;2022-08-03T02:24:42;1.95;;;1.20;;
40489;SDS011;26196;52.302;10.572;2022-08-03T02:28:44;2.22;;;2.03;;
40489;SDS011;26196;52.302;10.572;2022-08-03T02:32:50;1.95;;;1.50;;
40489;SDS011;26196;52.302;10.572;2022-08-03T02:36:54;7.10;;;1.33;;
40489;SDS011;26196;52.302;10.572;2022-08-03T02:40:59;4.07;;;1.50;;
40489;SDS011;26196;52.302;10.572;2022-08-03T02:45:04;1.90;;;1.50;;
40489;SDS011;26196;52.302;10.572;2022-08-03T02:49:07;1.77;;;1.35;;
40489;SDS011;26196;52.302;10.572;2022-08-03T02:53:09;1.50;;;1.40;;
40489;SDS011;26196;52.302;10.572;2022-08-03T02:57:11;2.20;;;1.20;;
40489;SDS011;26196;52.302;10.572;2022-08-03T03:01:14;1.40;;;1.25;;
40489;SDS011;26196;52.302;10.572;2022-08-03T03:05:15;1.75;;;1.40;;
40489;SDS011;26196;52.302;10.572;2022-08-03T03:09:16;2.58;;;1.40;;
40489;SDS011;26196;52.302;10.572;2022-08-03T03:13:17;4.90;;;1.75;;
40489;SDS011;26196;52.302;10.572;2022-08-03T03:17:19;4.95;;;1.95;;
40489;SDS011;26196;52.302;10.572;2022-08-03T03:21:21;1.85;;;1.25;;
40489;SDS011;26196;52.302;10.572;2022-08-03T03:25:22;1.38;;;1.10;;
40489;SDS011;26196;52.302;10.572;2022-08-03T03:29:23;1.70;;;1.10;;
40489;SDS011;26196;52.302;10.572;2022-08-03T03:33:24;1.70;;;1.33;;
40489;SDS011;26196;52.302;10.572;2022-08-03T03:37:25;2.88;;;1.30;;
40489;SDS011;26196;52.302;10.572;2022-08-03T03:41:26;1.20;;;1.10;;
40489;SDS011;26196;52.302;10.572;2022-08-03T03:45:27;5.10;;;1.20;;
40489;SDS011;26196;52.302;10.572;2022-08-03T03:49:30;3.45;;;2.13;;
40489;SDS011;26196;52.302;10.572;2022-08-03T03:53:31;3.60;;;1.58;;
40489;SDS011;26196;52.302;10.572;2022-08-03T03:57:32;2.17;;;1.38;;
40489;SDS011;26196;52.302;10.572;2022-08-03T04:01:33;1.90;;;1.38;;
40489;SDS011;26196;52.302;10.572;2022-08-03T04:05:33;2.17;;;1.40;;
40489;SDS011;26196;52.302;10.572;2022-08-03T04:09:53;1.75;;;1.42;;
40489;SDS011;26196;52.302;10.572;2022-08-03T04:14:15;1.58;;;1.38;;
40489;SDS011;26196;52.302;10.572;2022-08-03T04:18:19;1.80;;;1.30;;
40489;SDS011;26196;52.302;10.572;2022-08-03T04:22:25;3.83;;;1.30;;
40489;SDS011;26196;52.302;10.572;2022-08-03T04:26:29;2.53;;;1.50;;
40489;SDS011;26196;52.302;10.572;2022-08-03T04:30:32;5.35;;;1.98;;
40489;SDS011;26196;52.302;10.572;2022-08-03T04:34:36;2.28;;;1.33;;
40489;SDS011;26196;52.302;10.572;2022-08-03T04:38:39;4.72;;;2.00;;
40489;SDS011;26196;52.302;10.572;2022-08-03T04:42:48;2.58;;;1.50;;
40489;SDS011;26196;52.302;10.572;2022-08-03T04:46:50;2.47;;;1.35;;
40489;SDS011;26196;52.302;10.572;2022-08-03T04:50:52;4.72;;;1.67;;
40489;SDS011;26196;52.302;10.572;2022-08-03T04:54:53;4.40;;;1.88;;
40489;SDS011;26196;52.302;10.572;2022-08-03T04:58:54;1.77;;;1.33;;
40489;SDS011;26196;52.302;10.572;2022-08-03T05:02:54;3.83;;;1.13;;
40489;SDS011;26196;52.302;10.572;2022-08-03T05:06:55;1.38;;;1.27;;
40489;SDS011;26196;52.302;10.572;2022-08-03T05:10:55;3.65;;;1.52;;
40489;SDS011;26196;52.302;10.572;2022-08-03T05:14:56;3.92;;;1.65;;
40489;SDS011;26196;52.302;10.572;2022-08-03T05:18:56;4.93;;;2.03;;
40489;SDS011;26196;52.302;10.572;2022-08-03T05:22:57;4.30;;;1.70;;
40489;SDS011;26196;52.302;10.572;2022-08-03T05:26:59;3.85;;;1.83;;
40489;SDS011;26196;52.302;10.572;2022-08-03T05:31:00;2.97;;;1.50;;
40489;SDS011;26196;52.302;10.572;2022-08-03T05:35:01;4.53;;;1.70;;
40489;SDS011;26196;52.302;10.572;2022-08-03T05:39:01;6.72;;;2.05;;
40489;SDS011;26196;52.302;10.572;2022-08-03T05:43:02;7.35;;;2.05;;
40489;SDS011;26196;52.302;10.572;2022-08-03T05:47:03;7.50;;;1.90;;
40489;SDS011;26196;52.302;10.572;2022-08-03T05:51:04;5.35;;;2.00;;
40489;SDS011;26196;52.302;10.572;2022-08-03T05:55:07;3.83;;;2.00;;
40489;SDS011;26196;52.302;10.572;2022-08-03T05:59:08;8.40;;;2.10;;
40489;SDS011;26196;52.302;10.572;2022-08-03T06:03:09;7.43;;;2.15;;
40489;SDS011;26196;52.302;10.572;2022-08-03T06:07:09;4.50;;;2.00;;
40489;SDS011;26196;52.302;10.572;2022-08-03T06:11:10;6.25;;;1.85;;
40489;SDS011;26196;52.302;10.572;2022-08-03T06:15:11;3.83;;;1.38;;
40489;SDS011;26196;52.302;10.572;2022-08-03T06:19:11;7.25;;;2.17;;
40489;SDS011;26196;52.302;10.572;2022-08-03T06:23:12;4.82;;;2.30;;
40489;SDS011;26196;52.302;10.572;2022-08-03T06:27:12;3.60;;;1.67;;
40489;SDS011;26196;52.302;10.572;2022-08-03T06:31:13;2.13;;;1.80;;
40489;SDS011;26196;52.302;10.572;2022-08-03T06:35:13;3.22;;;1.80;;
40489;SDS011;26196;52.302;10.572;2022-08-03T06:39:15;2.30;;;1.50;;
40489;SDS011;26196;52.302;10.572;2022-08-03T06:43:16;6.95;;;1.95;;
40489;SDS011;26196;52.302;10.572;2022-08-03T06:47:17;2.35;;;1.83;;
40489;SDS011;26196;52.302;10.572;2022-08-03T06:51:17;2.78;;;1.60;;
40489;SDS011;26196;52.302;10.572;2022-08-03T06:55:18;4.32;;;1.75;;
40489;SDS011;26196;52.302;10.572;2022-08-03T06:59:18;7.20;;;2.08;;
40489;SDS011;26196;52.302;10.572;2022-08-03T07:03:18;6.28;;;1.70;;
40489;SDS011;26196;52.302;10.572;2022-08-03T07:07:19;2.90;;;1.60;;
40489;SDS011;26196;52.302;10.572;2022-08-03T07:11:19;2.65;;;1.25;;
40489;SDS011;26196;52.302;10.572;2022-08-03T07:15:20;3.22;;;1.58;;
40489;SDS011;26196;52.302;10.572;2022-08-03T07:19:20;3.88;;;1.60;;
40489;SDS011;26196;52.302;10.572;2022-08-03T07:23:21;1.85;;;1.30;;
40489;SDS011;26196;52.302;10.572;2022-08-03T07:27:21;2.88;;;1.65;;
40489;SDS011;26196;52.302;10.572;2022-08-03T07:31:22;3.05;;;1.73;;
40489;SDS011;26196;52.302;10.572;2022-08-03T07:35:22;2.55;;;1.30;;
40489;SDS011;26196;52.302;10.572;2022-08-03T07:39:23;3.85;;;1.77;;
40489;SDS011;26196;52.302;10.572;2022-08-03T07:43:23;2.58;;;1.42;;
40489;SDS011;26196;52.302;10.572;2022-08-03T07:47:28;2.03;;;1.52;;
40489;SDS011;26196;52.302;10.572;2022-08-03T07:51:29;2.80;;;1.50;;
40489;SDS011;26196;52.302;10.572;2022-08-03T07:55:30;3.40;;;1.75;;
40489;SDS011;26196;52.302;10.572;2022-08-03T07:59:30;2.58;;;1.83;;
40489;SDS011;26196;52.302;10.572;2022-08-03T08:03:31;4.35;;;1.42;;
40489;SDS011;26196;52.302;10.572;2022-08-03T08:07:32;2.72;;;1.80;;
40489;SDS011;26196;52.302;10.572;2022-08-03T08:11:33;3.63;;;1.55;;
40489;SDS011;26196;52.302;10.572;2022-08-03T08:15:33;2.28;;;1.58;;
40489;SDS011;26196;52.302;10.572;2022-08-03T08:19:33;3.40;;;1.60;;
40489;SDS011;26196;52.302;10.572;2022-08-03T08:23:34;3.30;;;1.73;;
40489;SDS011;26196;52.302;10.572;2022-08-03T08:27:41;6.78;;;2.20;;
40489;SDS011;26196;52.302;10.572;2022-08-03T08:31:43;3.00;;;1.73;;
40489;SDS011;26196;52.302;10.572;2022-08-03T08:35:44;6.30;;;1.73;;
40489;SDS011;26196;52.302;10.572;2022-08-03T08:39:45;3.63;;;1.83;;
40489;SDS011;26196;52.302;10.572;2022-08-03T08:43:46;2.15;;;1.38;;
40489;SDS011;26196;52.302;10.572;2022-08-03T08:47:47;1.88;;;1.27;;
40489;SDS011;26196;52.302;10.572;2022-08-03T08:51:49;3.38;;;1.98;;
40489;SDS011;26196;52.302;10.572;2022-08-03T08:55:51;4.20;;;1.50;;
40489;SDS011;26196;52.302;10.572;2022-08-03T08:59:55;2.83;;;1.52;;
40489;SDS011;26196;52.302;10.572;2022-08-03T09:03:56;1.88;;;1.25;;
40489;SDS011;26196;52.302;10.572;2022-08-03T09:07:56;4.95;;;1.73;;
40489;SDS011;26196;52.302;10.572;2022-08-03T09:11:57;2.17;;;1.38;;
40489;SDS011;26196;52.302;10.572;2022-08-03T09:16:10;1.98;;;1.25;;
40489;SDS011;26196;52.302;10.572;2022-08-03T09:20:13;6.57;;;1.83;;
40489;SDS011;26196;52.302;10.572;2022-08-03T09:24:13;1.20;;;1.10;;
40489;SDS011;26196;52.302;10.572;2022-08-03T09:28:20;1.30;;;1.17;;
40489;SDS011;26196;52.302;10.572;2022-08-03T09:32:21;1.30;;;1.20;;
40489;SDS011;26196;52.302;10.572;2022-08-03T09:36:36;2.17;;;1.10;;
40489;SDS011;26196;52.302;10.572;2022-08-03T09:40:37;1.55;;;1.00;;
40489;SDS011;26196;52.302;10.572;2022-08-03T09:44:39;2.10;;;1.25;;
40489;SDS011;26196;52.302;10.572;2022-08-03T09:48:41;3.78;;;1.30;;
40489;SDS011;26196;52.302;10.572;2022-08-03T09:52:41;2.05;;;1.10;;
40489;SDS011;26196;52.302;10.572;2022-08-03T09:56:46;3.35;;;1.33;;
40489;SDS011;26196;52.302;10.572;2022-08-03T10:05:13;2.30;;;1.30;;
40489;SDS011;26196;52.302;10.572;2022-08-03T10:09:15;1.95;;;1.40;;
40489;SDS011;26196;52.302;10.572;2022-08-03T10:13:17;2.20;;;1.25;;
40489;SDS011;26196;52.302;10.572;2022-08-03T10:17:18;1.85;;;1.08;;
40489;SDS011;26196;52.302;10.572;2022-08-03T10:21:20;2.90;;;1.17;;
40489;SDS011;26196;52.302;10.572;2022-08-03T10:30:17;2.03;;;1.60;;
40489;SDS011;26196;52.302;10.572;2022-08-03T10:34:21;2.92;;;1.40;;
40489;SDS011;26196;52.302;10.572;2022-08-03T10:38:25;1.40;;;1.30;;
40489;SDS011;26196;52.302;10.572;2022-08-03T10:42:31;2.38;;;1.10;;
40489;SDS011;26196;52.302;10.572;2022-08-03T10:46:32;2.03;;;1.00;;
40489;SDS011;26196;52.302;10.572;2022-08-03T10:50:35;2.83;;;1.02;;
40489;SDS011;26196;52.302;10.572;2022-08-03T11:07:23;3.03;;;1.77;;
40489;SDS011;26196;52.302;10.572;2022-08-03T11:11:25;3.38;;;1.42;;
40489;SDS011;26196;52.302;10.572;2022-08-03T11:15:33;2.65;;;1.50;;
40489;SDS011;26196;52.302;10.572;2022-08-03T11:19:44;3.35;;;1.80;;
40489;SDS011;26196;52.302;10.572;2022-08-03T11:23:46;1.73;;;1.20;;
40489;SDS011;26196;52.302;10.572;2022-08-03T11:27:48;3.72;;;1.20;;
40489;SDS011;26196;52.302;10.572;2022-08-03T11:41:31;3.17;;;1.05;;
40489;SDS011;26196;52.302;10.572;2022-08-03T11:45:32;2.55;;;1.30;;
40489;SDS011;26196;52.302;10.572;2022-08-03T11:49:33;1.98;;;1.40;;
40489;SDS011;26196;52.302;10.572;2022-08-03T11:53:37;1.10;;;1.00;;
40489;SDS011;26196;52.302;10.572;2022-08-03T11:57:39;2.72;;;1.65;;
40489;SDS011;26196;52.302;10.572;2022-08-03T12:01:40;3.15;;;1.63;;
40489;SDS011;26196;52.302;10.572;2022-08-03T12:05:42;3.45;;;1.58;;
40489;SDS011;26196;52.302;10.572;2022-08-03T12:14:07;4.95;;;1.73;;
40489;SDS011;26196;52.302;10.572;2022-08-03T12:18:16;3.15;;;1.98;;
40489;SDS011;26196;52.302;10.572;2022-08-03T12:22:29;9.95;;;2.08;;
40489;SDS011;26196;52.302;10.572;2022-08-03T12:26:42;3.33;;;1.13;;
40489;SDS011;26196;52.302;10.572;2022-08-03T12:30:47;3.97;;;1.10;;
40489;SDS011;26196;52.302;10.572;2022-08-03T12:34:50;1.33;;;1.23;;
40489;SDS011;26196;52.302;10.572;2022-08-03T12:38:58;1.55;;;1.00;;
40489;SDS011;26196;52.302;10.572;2022-08-03T12:43:10;1.40;;;0.98;;
40489;SDS011;26196;52.302;10.572;2022-08-03T12:47:12;1.80;;;1.10;;
40489;SDS011;26196;52.302;10.572;2022-08-03T12:51:12;2.45;;;1.35;;
40489;SDS011;26196;52.302;10.572;2022-08-03T12:55:17;3.40;;;1.00;;
40489;SDS011;26196;52.302;10.572;2022-08-03T12:59:22;1.83;;;1.10;;
40489;SDS011;26196;52.302;10.572;2022-08-03T13:03:23;1.20;;;1.10;;
40489;SDS011;26196;52.302;10.572;2022-08-03T13:07:24;2.20;;;0.95;;
40489;SDS011;26196;52.302;10.572;2022-08-03T13:11:25;12.35;;;6.28;;
40489;SDS011;26196;52.302;10.572;2022-08-03T13:15:26;49.33;;;24.77;;
40489;SDS011;26196;52.302;10.572;2022-08-03T13:19:28;18.23;;;10.50;;
40489;SDS011;26196;52.302;10.572;2022-08-03T13:23:30;16.50;;;10.30;;
40489;SDS011;26196;52.302;10.572;2022-08-03T13:27:30;5.60;;;3.22;;
40489;SDS011;26196;52.302;10.572;2022-08-03T13:31:31;5.03;;;2.90;;
40489;SDS011;26196;52.302;10.572;2022-08-03T13:35:31;7.75;;;4.97;;
40489;SDS011;26196;52.302;10.572;2022-08-03T13:39:32;13.68;;;7.88;;
40489;SDS011;26196;52.302;10.572;2022-08-03T13:43:32;5.97;;;2.35;;
40489;SDS011;26196;52.302;10.572;2022-08-03T13:47:33;5.35;;;2.40;;
40489;SDS011;26196;52.302;10.572;2022-08-03T13:51:35;3.00;;;2.22;;
40489;SDS011;26196;52.302;10.572;2022-08-03T13:55:36;4.70;;;2.15;;
40489;SDS011;26196;52.302;10.572;2022-08-03T13:59:37;2.38;;;1.92;;
40489;SDS011;26196;52.302;10.572;2022-08-03T14:03:38;1.88;;;1.52;;
40489;SDS011;26196;52.302;10.572;2022-08-03T14:07:38;3.35;;;2.03;;
40489;SDS011;26196;52.302;10.572;2022-08-03T14:11:39;1.58;;;1.30;;
40489;SDS011;26196;52.302;10.572;2022-08-03T14:15:45;2.40;;;1.80;;
40489;SDS011;26196;52.302;10.572;2022-08-03T14:19:46;2.00;;;1.40;;
40489;SDS011;26196;52.302;10.572;2022-08-03T14:23:47;7.05;;;3.08;;
40489;SDS011;26196;52.302;10.572;2022-08-03T14:27:47;4.10;;;2.30;;
40489;SDS011;26196;52.302;10.572;2022-08-03T14:31:48;2.45;;;2.08;;
40489;SDS011;26196;52.302;10.572;2022-08-03T14:35:48;1.85;;;1.27;;
40489;SDS011;26196;52.302;10.572;2022-08-03T14:39:49;2.97;;;1.50;;
40489;SDS011;26196;52.302;10.572;2022-08-03T14:43:50;2.25;;;1.80;;
40489;SDS011;26196;52.302;10.572;2022-08-03T14:47:50;4.88;;;1.85;;
40489;SDS011;26196;52.302;10.572;2022-08-03T14:51:51;1.27;;;1.17;;
40489;SDS011;26196;52.302;10.572;2022-08-03T14:55:51;1.60;;;1.40;;
40489;SDS011;26196;52.302;10.572;2022-08-03T14:59:52;4.60;;;1.70;;
40489;SDS011;26196;52.302;10.572;2022-08-03T15:03:53;2.25;;;1.80;;
40489;SDS011;26196;52.302;10.572;2022-08-03T15:07:53;1.88;;;1.60;;
40489;SDS011;26196;52.302;10.572;2022-08-03T15:11:54;5.35;;;2.30;;
40489;SDS011;26196;52.302;10.572;2022-08-03T15:15:54;2.03;;;1.58;;
40489;SDS011;26196;52.302;10.572;2022-08-03T15:19:56;4.15;;;1.70;;
40489;SDS011;26196;52.302;10.572;2022-08-03T15:23:57;1.67;;;1.38;;
40489;SDS011;26196;52.302;10.572;2022-08-03T15:27:57;1.70;;;1.30;;
40489;SDS011;26196;52.302;10.572;2022-08-03T15:31:58;3.60;;;1.80;;
40489;SDS011;26196;52.302;10.572;2022-08-03T15:35:58;1.80;;;1.42;;
40489;SDS011;26196;52.302;10.572;2022-08-03T15:39:59;2.40;;;1.33;;
40489;SDS011;26196;52.302;10.572;2022-08-03T15:44:00;2.08;;;1.33;;
40489;SDS011;26196;52.302;10.572;2022-08-03T15:48:00;2.45;;;1.15;;
40489;SDS011;26196;52.302;10.572;2022-08-03T15:52:01;3.63;;;1.33;;
40489;SDS011;26196;52.302;10.572;2022-08-03T15:56:02;2.28;;;1.40;;
40489;SDS011;26196;52.302;10.572;2022-08-03T16:00:06;1.60;;;1.13;;
40489;SDS011;26196;52.302;10.572;2022-08-03T16:04:10;2.33;;;1.05;;
40489;SDS011;26196;52.302;10.572;2022-08-03T16:08:10;1.05;;;0.98;;
40489;SDS011;26196;52.302;10.572;2022-08-03T16:12:11;2.90;;;1.27;;
40489;SDS011;26196;52.302;10.572;2022-08-03T16:16:11;1.08;;;0.98;;
40489;SDS011;26196;52.302;10.572;2022-08-03T16:20:12;1.63;;;1.30;;
40489;SDS011;26196;52.302;10.572;2022-08-03T16:24:13;2.90;;;2.15;;
40489;SDS011;26196;52.302;10.572;2022-08-03T16:28:13;2.40;;;1.30;;
40489;SDS011;26196;52.302;10.572;2022-08-03T16:32:14;3.00;;;1.48;;
40489;SDS011;26196;52.302;10.572;2022-08-03T16:36:14;2.17;;;1.23;;
40489;SDS011;26196;52.302;10.572;2022-08-03T16:40:15;1.75;;;1.35;;
40489;SDS011;26196;52.302;10.572;2022-08-03T16:44:15;2.42;;;1.20;;
40489;SDS011;26196;52.302;10.572;2022-08-03T16:48:16;3.13;;;1.20;;
40489;SDS011;26196;52.302;10.572;2022-08-03T16:52:17;5.05;;;1.40;;
40489;SDS011;26196;52.302;10.572;2022-08-03T16:56:17;1.77;;;1.30;;
40489;SDS011;26196;52.302;10.572;2022-08-03T17:00:18;2.22;;;1.33;;
40489;SDS011;26196;52.302;10.572;2022-08-03T17:04:19;10.65;;;1.40;;
40489;SDS011;26196;52.302;10.572;2022-08-03T17:08:19;4.32;;;1.40;;
40489;SDS011;26196;52.302;10.572;2022-08-03T17:12:19;7.65;;;1.60;;
40489;SDS011;26196;52.302;10.572;2022-08-03T17:16:20;4.70;;;1.50;;
40489;SDS011;26196;52.302;10.572;2022-08-03T17:20:21;2.17;;;1.05;;
40489;SDS011;26196;52.302;10.572;2022-08-03T17:24:26;3.88;;;1.70;;
40489;SDS011;26196;52.302;10.572;2022-08-03T17:28:27;2.50;;;1.40;;
40489;SDS011;26196;52.302;10.572;2022-08-03T17:32:41;1.20;;;1.00;;
40489;SDS011;26196;52.302;10.572;2022-08-03T17:36:45;3.70;;;1.65;;
40489;SDS011;26196;52.302;10.572;2022-08-03T17:40:47;11.23;;;2.00;;
40489;SDS011;26196;52.302;10.572;2022-08-03T17:44:47;1.63;;;0.90;;
40489;SDS011;26196;52.302;10.572;2022-08-03T17:48:49;1.90;;;1.10;;
40489;SDS011;26196;52.302;10.572;2022-08-03T17:52:50;1.17;;;1.02;;
40489;SDS011;26196;52.302;10.572;2022-08-03T17:57:23;1.52;;;1.27;;
40489;SDS011;26196;52.302;10.572;2022-08-03T18:06:07;1.92;;;1.17;;
40489;SDS011;26196;52.302;10.572;2022-08-03T18:10:08;3.35;;;1.35;;
40489;SDS011;26196;52.302;10.572;2022-08-03T18:22:52;3.17;;;1.42;;
40489;SDS011;26196;52.302;10.572;2022-08-03T18:26:54;2.63;;;1.50;;
40489;SDS011;26196;52.302;10.572;2022-08-03T18:30:55;1.77;;;1.40;;
40489;SDS011;26196;52.302;10.572;2022-08-03T18:34:56;9.07;;;2.13;;
40489;SDS011;26196;52.302;10.572;2022-08-03T18:38:59;10.75;;;3.47;;
40489;SDS011;26196;52.302;10.572;2022-08-03T18:43:01;6.25;;;2.08;;
40489;SDS011;26196;52.302;10.572;2022-08-03T18:47:15;5.53;;;2.28;;
40489;SDS011;26196;52.302;10.572;2022-08-03T18:51:36;6.75;;;2.63;;
40489;SDS011;26196;52.302;10.572;2022-08-03T18:55:42;5.63;;;2.38;;
40489;SDS011;26196;52.302;10.572;2022-08-03T19:03:57;4.63;;;2.97;;
40489;SDS011;26196;52.302;10.572;2022-08-03T19:08:53;5.22;;;2.65;;
40489;SDS011;26196;52.302;10.572;2022-08-03T19:12:37;4.88;;;2.60;;
40489;SDS011;26196;52.302;10.572;2022-08-03T19:16:48;6.47;;;2.47;;
40489;SDS011;26196;52.302;10.572;2022-08-03T19:20:56;7.43;;;2.83;;
40489;SDS011;26196;52.302;10.572;2022-08-03T19:24:58;5.20;;;2.60;;
40489;SDS011;26196;52.302;10.572;2022-08-03T19:29:02;10.27;;;2.63;;
40489;SDS011;26196;52.302;10.572;2022-08-03T19:33:09;9.90;;;2.78;;
40489;SDS011;26196;52.302;10.572;2022-08-03T19:37:11;14.50;;;3.25;;
40489;SDS011;26196;52.302;10.572;2022-08-03T19:41:13;15.50;;;3.47;;
40489;SDS011;26196;52.302;10.572;2022-08-03T19:45:20;8.35;;;3.40;;
40489;SDS011;26196;52.302;10.572;2022-08-03T19:49:25;9.68;;;2.90;;
40489;SDS011;26196;52.302;10.572;2022-08-03T19:53:31;7.45;;;2.20;;
40489;SDS011;26196;52.302;10.572;2022-08-03T19:57:34;5.43;;;2.60;;
40489;SDS011;26196;52.302;10.572;2022-08-03T20:01:36;7.38;;;2.28;;
40489;SDS011;26196;52.302;10.572;2022-08-03T20:05:37;9.68;;;2.30;;
40489;SDS011;26196;52.302;10.572;2022-08-03T20:09:38;4.90;;;2.63;;
40489;SDS011;26196;52.302;10.572;2022-08-03T20:13:39;8.93;;;2.90;;
40489;SDS011;26196;52.302;10.572;2022-08-03T20:17:43;7.68;;;2.70;;
40489;SDS011;26196;52.302;10.572;2022-08-03T20:21:44;12.25;;;3.55;;
40489;SDS011;26196;52.302;10.572;2022-08-03T20:25:50;11.65;;;3.55;;
40489;SDS011;26196;52.302;10.572;2022-08-03T20:29:55;11.05;;;3.40;;
40489;SDS011;26196;52.302;10.572;2022-08-03T20:33:56;9.05;;;3.25;;
40489;SDS011;26196;52.302;10.572;2022-08-03T20:37:56;16.23;;;4.32;;
40489;SDS011;26196;52.302;10.572;2022-08-03T20:41:57;10.50;;;3.65;;
40489;SDS011;26196;52.302;10.572;2022-08-03T20:45:59;11.77;;;4.65;;
40489;SDS011;26196;52.302;10.572;2022-08-03T20:50:00;9.82;;;3.65;;
40489;SDS011;26196;52.302;10.572;2022-08-03T20:54:01;10.20;;;4.68;;
40489;SDS011;26196;52.302;10.572;2022-08-03T20:58:03;12.07;;;5.10;;
40489;SDS011;26196;52.302;10.572;2022-08-03T21:02:03;21.98;;;5.47;;
40489;SDS011;26196;52.302;10.572;2022-08-03T21:06:04;18.25;;;5.78;;
40489;SDS011;26196;52.302;10.572;2022-08-03T21:10:08;18.95;;;5.00;;
40489;SDS011;26196;52.302;10.572;2022-08-03T21:14:22;21.00;;;5.95;;
40489;SDS011;26196;52.302;10.572;2022-08-03T21:18:24;16.25;;;4.45;;
40489;SDS011;26196;52.302;10.572;2022-08-03T21:22:26;16.25;;;5.07;;
40489;SDS011;26196;52.302;10.572;2022-08-03T21:26:31;10.20;;;4.15;;
40489;SDS011;26196;52.302;10.572;2022-08-03T21:30:34;10.35;;;3.38;;
40489;SDS011;26196;52.302;10.572;2022-08-03T21:34:35;5.38;;;3.15;;
40489;SDS011;26196;52.302;10.572;2022-08-03T21:38:36;9.57;;;2.40;;
40489;SDS011;26196;52.302;10.572;2022-08-03T21:42:37;5.28;;;2.60;;
40489;SDS011;26196;52.302;10.572;2022-08-03T21:46:39;5.97;;;3.30;;
40489;SDS011;26196;52.302;10.572;2022-08-03T21:50:41;6.40;;;2.90;;
40489;SDS011;26196;52.302;10.572;2022-08-03T21:54:42;6.55;;;2.65;;
40489;SDS011;26196;52.302;10.572;2022-08-03T21:58:52;3.83;;;2.60;;
40489;SDS011;26196;52.302;10.572;2022-08-03T22:02:54;6.85;;;2.65;;
40489;SDS011;26196;52.302;10.572;2022-08-03T22:06:56;8.90;;;2.60;;
40489;SDS011;26196;52.302;10.572;2022-08-03T22:10:57;8.23;;;2.25;;
40489;SDS011;26196;52.302;10.572;2022-08-03T22:14:58;4.57;;;2.33;;
40489;SDS011;26196;52.302;10.572;2022-08-03T22:19:00;5.40;;;2.20;;
40489;SDS011;26196;52.302;10.572;2022-08-03T22:23:02;2.65;;;2.20;;
40489;SDS011;26196;52.302;10.572;2022-08-03T22:27:05;3.67;;;2.17;;
40489;SDS011;26196;52.302;10.572;2022-08-03T22:31:24;4.75;;;2.22;;
40489;SDS011;26196;52.302;10.572;2022-08-03T22:35:25;5.68;;;2.35;;
40489;SDS011;26196;52.302;10.572;2022-08-03T22:39:27;5.63;;;2.45;;
40489;SDS011;26196;52.302;10.572;2022-08-03T22:43:28;4.00;;;2.25;;
40489;SDS011;26196;52.302;10.572;2022-08-03T22:47:33;6.53;;;2.28;;
40489;SDS011;26196;52.302;10.572;2022-08-03T22:51:35;5.53;;;2.30;;
40489;SDS011;26196;52.302;10.572;2022-08-03T22:55:36;3.33;;;2.13;;
40489;SDS011;26196;52.302;10.572;2022-08-03T22:59:36;5.05;;;2.00;;
40489;SDS011;26196;52.302;10.572;2022-08-03T23:03:40;4.30;;;1.95;;
40489;SDS011;26196;52.302;10.572;2022-08-03T23:07:49;6.10;;;2.00;;
40489;SDS011;26196;52.302;10.572;2022-08-03T23:11:50;2.92;;;2.13;;
40489;SDS011;26196;52.302;10.572;2022-08-03T23:15:55;3.35;;;1.83;;
40489;SDS011;26196;52.302;10.572;2022-08-03T23:20:00;3.40;;;2.00;;
40489;SDS011;26196;52.302;10.572;2022-08-03T23:24:05;4.28;;;2.08;;
40489;SDS011;26196;52.302;10.572;2022-08-03T23:28:06;2.65;;;2.10;;
40489;SDS011;26196;52.302;10.572;2022-08-03T23:32:08;2.25;;;2.05;;
40489;SDS011;26196;52.302;10.572;2022-08-03T23:36:09;3.42;;;1.90;;
40489;SDS011;26196;52.302;10.572;2022-08-03T23:40:16;5.10;;;2.25;;
40489;SDS011;26196;52.302;10.572;2022-08-03T23:44:22;2.03;;;1.70;;
40489;SDS011;26196;52.302;10.572;2022-08-03T23:48:26;4.55;;;2.17;;
40489;SDS011;26196;52.302;10.572;2022-08-03T23:52:33;3.53;;;2.17;;
40489;SDS011;26196;52.302;10.572;2022-08-03T23:56:52;2.25;;;1.95;;
